Time;durP1;ratioP1;P1;durP2;ratioP2;P2;SDS_P1;SDS_P2;PMS_P1;PMS_P2;Temp;Humidity;BMP_temperature;BMP_pressure;BME280_temperature;BME280_humidity;BME280_pressure;Samples;Min_cycle;Max_cycle;Signal;HPM_P1;HPM_P2
2022/10/18 00:01:47;;;;;;;10.43;7.40;;;16.80;99.90;;;;;;4788403;29;20639;-82
2022/10/18 00:04:12;;;;;;;9.07;7.07;;;16.80;99.90;;;;;;4785719;29;20590;-82
2022/10/18 00:06:38;;;;;;;12.63;7.28;;;16.80;99.90;;;;;;4787825;29;20230;-82
2022/10/18 00:09:04;;;;;;;12.68;7.65;;;16.70;99.90;;;;;;4802262;29;20199;-82
2022/10/18 00:11:30;;;;;;;10.30;7.30;;;16.70;99.90;;;;;;4800478;29;20214;-82
2022/10/18 00:13:57;;;;;;;9.48;7.55;;;16.70;99.90;;;;;;4781432;30;20242;-82
2022/10/18 00:16:22;;;;;;;10.98;8.57;;;16.80;99.90;;;;;;4801368;29;20594;-82
2022/10/18 00:18:48;;;;;;;11.77;8.57;;;16.70;99.90;;;;;;4785978;30;20226;-81
2022/10/18 00:21:17;;;;;;;12.05;7.95;;;16.70;99.90;;;;;;4801137;29;20191;-83
2022/10/18 00:23:43;;;;;;;10.13;8.40;;;16.70;99.90;;;;;;4787308;30;20263;-82
2022/10/18 00:26:14;;;;;;;12.25;8.20;;;16.70;99.90;;;;;;4787399;29;20230;-82
2022/10/18 00:28:41;;;;;;;9.93;7.55;;;16.70;99.90;;;;;;4818078;29;20238;-82
2022/10/18 00:31:12;;;;;;;10.38;8.02;;;16.70;99.90;;;;;;4821763;29;20208;-82
2022/10/18 00:33:38;;;;;;;9.68;8.48;;;16.70;99.90;;;;;;4803288;29;20189;-82
2022/10/18 00:36:04;;;;;;;9.77;7.72;;;16.70;99.90;;;;;;4819650;29;20244;-82
2022/10/18 00:38:30;;;;;;;11.98;8.52;;;16.70;99.90;;;;;;4819409;29;20190;-82
2022/10/18 00:40:56;;;;;;;11.32;8.23;;;16.70;99.90;;;;;;4812596;29;20200;-82
2022/10/18 00:43:22;;;;;;;13.00;8.70;;;16.70;99.90;;;;;;4824090;29;20197;-82
2022/10/18 00:45:47;;;;;;;13.98;8.80;;;16.70;99.90;;;;;;4823896;29;20190;-82
2022/10/18 00:48:15;;;;;;;9.95;7.90;;;16.60;99.90;;;;;;4809533;29;20689;-82
2022/10/18 00:50:42;;;;;;;8.75;7.85;;;16.60;99.90;;;;;;4823828;29;20182;-82
2022/10/18 00:53:13;;;;;;;9.73;7.65;;;16.60;99.90;;;;;;4815208;29;20186;-82
2022/10/18 00:55:39;;;;;;;10.07;8.75;;;16.50;99.90;;;;;;4824236;29;20193;-82
2022/10/18 00:58:06;;;;;;;11.82;8.23;;;16.50;99.90;;;;;;4817160;29;20190;-82
2022/10/18 01:00:37;;;;;;;14.13;8.95;;;16.50;99.90;;;;;;4822665;29;20197;-82
2022/10/18 01:03:04;;;;;;;9.70;7.75;;;16.50;99.90;;;;;;4818159;29;20578;-82
2022/10/18 01:05:30;;;;;;;9.88;8.07;;;16.40;99.90;;;;;;4822371;29;20538;-82
2022/10/18 01:08:32;;;;;;;11.40;8.52;;;16.50;99.90;;;;;;4812734;29;20557;-82
2022/10/18 01:11:38;;;;;;;12.73;9.18;;;16.40;99.90;;;;;;4822584;29;20300;-82
2022/10/18 01:14:21;;;;;;;15.65;10.50;;;16.50;99.90;;;;;;4823190;29;20189;-82
2022/10/18 01:16:47;;;;;;;14.40;9.35;;;16.50;99.90;;;;;;4821256;29;20193;-82
2022/10/18 01:19:31;;;;;;;17.63;10.43;;;16.40;99.90;;;;;;4814787;29;20301;-82
2022/10/18 01:22:03;;;;;;;11.38;9.40;;;16.40;99.90;;;;;;4824790;29;20529;-82
2022/10/18 01:24:57;;;;;;;15.82;10.70;;;16.40;99.90;;;;;;4808664;29;20308;-83
2022/10/18 01:27:52;;;;;;;14.77;10.57;;;16.40;99.90;;;;;;4816182;29;20241;-83
2022/10/18 01:30:32;;;;;;;12.90;9.35;;;16.40;99.90;;;;;;4827381;29;20186;-83
2022/10/18 01:33:20;;;;;;;11.55;9.80;;;16.40;99.90;;;;;;4822177;29;20186;-82
2022/10/18 01:36:06;;;;;;;13.00;9.82;;;16.40;99.90;;;;;;4825892;29;20265;-82
2022/10/18 01:38:33;;;;;;;13.30;8.98;;;16.40;99.90;;;;;;4811919;29;20204;-82
2022/10/18 01:41:01;;;;;;;11.82;10.02;;;16.40;99.90;;;;;;4825789;29;20194;-82
2022/10/18 01:43:27;;;;;;;15.48;10.40;;;16.30;99.90;;;;;;4821629;29;20210;-83
2022/10/18 01:45:55;;;;;;;14.55;10.43;;;16.30;99.90;;;;;;4820469;29;20260;-82
2022/10/18 01:48:21;;;;;;;15.18;10.05;;;16.30;99.90;;;;;;4818722;29;20205;-82
2022/10/18 01:50:47;;;;;;;11.35;9.20;;;16.30;99.90;;;;;;4824851;29;20204;-82
2022/10/18 01:53:31;;;;;;;17.13;10.98;;;16.30;99.90;;;;;;4822606;29;20544;-82
2022/10/18 01:56:12;;;;;;;14.43;10.40;;;16.30;99.90;;;;;;4817122;29;20558;-82
2022/10/18 01:58:52;;;;;;;12.75;10.73;;;16.30;99.90;;;;;;4826300;29;20194;-82
2022/10/18 02:01:42;;;;;;;11.93;10.45;;;16.30;99.90;;;;;;4825426;29;20276;-83
2022/10/18 02:04:45;;;;;;;14.30;10.07;;;16.30;99.90;;;;;;4799578;29;20206;-82
2022/10/18 02:07:52;;;;;;;14.75;10.65;;;16.30;99.90;;;;;;4818555;29;20260;-83
2022/10/18 02:10:43;;;;;;;16.52;10.77;;;16.30;99.90;;;;;;4818222;29;20660;-82
2022/10/18 02:13:15;;;;;;;13.75;10.05;;;16.30;99.90;;;;;;4809919;29;20546;-83
2022/10/18 02:15:45;;;;;;;14.88;11.13;;;16.30;99.90;;;;;;4825193;29;20198;-82
2022/10/18 02:18:15;;;;;;;13.02;9.93;;;16.30;99.90;;;;;;4825806;29;20219;-83
2022/10/18 02:20:41;;;;;;;13.80;10.32;;;16.30;99.90;;;;;;4825613;29;20242;-83
2022/10/18 02:23:08;;;;;;;16.30;10.85;;;16.30;99.90;;;;;;4825845;29;20198;-83
2022/10/18 02:25:35;;;;;;;15.23;11.52;;;16.30;99.90;;;;;;4824990;29;20186;-83
2022/10/18 02:28:02;;;;;;;14.07;10.50;;;16.30;99.90;;;;;;4825654;29;20568;-83
2022/10/18 02:30:51;;;;;;;13.95;10.73;;;16.30;99.90;;;;;;4825229;29;20273;-82
2022/10/18 02:33:29;;;;;;;19.10;10.98;;;16.30;99.90;;;;;;4819130;29;20193;-82
2022/10/18 02:36:03;;;;;;;12.32;10.50;;;16.30;99.90;;;;;;4823757;29;20194;-83
2022/10/18 02:38:31;;;;;;;13.63;10.10;;;16.20;99.90;;;;;;4824623;29;20173;-82
2022/10/18 02:40:57;;;;;;;14.18;9.90;;;16.20;99.90;;;;;;4824847;29;20227;-83
2022/10/18 02:43:23;;;;;;;12.95;9.93;;;16.20;99.90;;;;;;4810530;29;20194;-82
2022/10/18 02:45:49;;;;;;;14.63;10.73;;;16.20;99.90;;;;;;4808585;29;20638;-83
2022/10/18 02:48:15;;;;;;;16.30;10.63;;;16.10;99.90;;;;;;4826374;29;20197;-83
2022/10/18 02:50:41;;;;;;;15.98;10.15;;;16.20;99.90;;;;;;4823925;29;20194;-83
2022/10/18 02:53:06;;;;;;;13.77;10.18;;;16.10;99.90;;;;;;4825724;29;20652;-82
2022/10/18 02:55:32;;;;;;;17.05;10.75;;;16.10;99.90;;;;;;4820386;29;20208;-83
2022/10/18 02:57:58;;;;;;;16.17;11.02;;;16.10;99.90;;;;;;4815589;29;20205;-82
2022/10/18 03:00:24;;;;;;;14.18;10.65;;;16.10;99.90;;;;;;4824277;29;20251;-82
2022/10/18 03:02:49;;;;;;;14.80;10.00;;;16.10;99.90;;;;;;4824686;29;20193;-82
2022/10/18 03:05:15;;;;;;;12.30;9.90;;;16.10;99.90;;;;;;4824378;29;20219;-83
2022/10/18 03:07:41;;;;;;;17.25;10.05;;;16.10;99.90;;;;;;4824945;29;20225;-83
2022/10/18 03:10:07;;;;;;;15.45;10.82;;;16.10;99.90;;;;;;4824893;29;20250;-83
2022/10/18 03:12:33;;;;;;;15.85;10.75;;;16.00;99.90;;;;;;4814075;29;20200;-83
2022/10/18 03:14:59;;;;;;;16.02;11.55;;;16.00;99.90;;;;;;4824386;29;20198;-82
2022/10/18 03:17:25;;;;;;;19.15;10.65;;;16.00;99.90;;;;;;4825594;29;20186;-83
2022/10/18 03:19:50;;;;;;;12.93;10.63;;;16.00;99.90;;;;;;4824513;29;20197;-83
2022/10/18 03:22:16;;;;;;;14.38;10.93;;;16.00;99.90;;;;;;4817545;29;20201;-83
2022/10/18 03:24:42;;;;;;;11.75;10.32;;;16.00;99.90;;;;;;4825418;29;20182;-83
2022/10/18 03:27:07;;;;;;;13.00;9.57;;;15.90;99.90;;;;;;4819780;29;20690;-83
2022/10/18 03:29:33;;;;;;;18.55;10.48;;;16.00;99.90;;;;;;4825649;29;20190;-84
2022/10/18 03:31:59;;;;;;;17.70;11.52;;;15.90;99.90;;;;;;4824753;29;20242;-83
2022/10/18 03:34:24;;;;;;;16.25;11.23;;;15.90;99.90;;;;;;4823680;29;20240;-83
2022/10/18 03:36:50;;;;;;;16.13;11.30;;;15.90;99.90;;;;;;4823181;29;20277;-83
2022/10/18 03:39:16;;;;;;;14.60;10.48;;;15.90;99.90;;;;;;4823839;29;20266;-83
2022/10/18 03:41:42;;;;;;;15.65;11.05;;;15.90;99.90;;;;;;4824326;29;20190;-83
2022/10/18 03:44:07;;;;;;;18.35;11.13;;;15.90;99.90;;;;;;4818906;29;20562;-82
2022/10/18 03:46:33;;;;;;;14.48;10.82;;;15.90;99.90;;;;;;4816871;29;20229;-82
2022/10/18 03:48:59;;;;;;;16.92;11.93;;;15.80;99.90;;;;;;4825254;29;20192;-83
2022/10/18 03:51:24;;;;;;;14.95;11.68;;;15.70;99.90;;;;;;4819022;29;20675;-82
2022/10/18 03:53:50;;;;;;;22.80;11.82;;;15.80;99.90;;;;;;4825193;29;20182;-83
2022/10/18 03:56:16;;;;;;;19.27;12.18;;;15.80;99.90;;;;;;4814397;29;20646;-83
2022/10/18 03:58:41;;;;;;;20.40;13.18;;;15.80;99.90;;;;;;4822453;29;20194;-84
2022/10/18 04:01:07;;;;;;;15.85;12.50;;;15.80;99.90;;;;;;4816777;29;21353;-83
2022/10/18 04:03:33;;;;;;;16.85;11.82;;;15.80;99.90;;;;;;4819278;29;20704;-83
2022/10/18 04:05:59;;;;;;;15.95;11.68;;;15.80;99.90;;;;;;4823835;29;20189;-83
2022/10/18 04:08:25;;;;;;;15.05;12.23;;;15.80;99.90;;;;;;4823515;29;20201;-83
2022/10/18 04:10:51;;;;;;;15.98;12.40;;;15.80;99.90;;;;;;4808208;29;20190;-82
2022/10/18 04:13:17;;;;;;;16.05;12.10;;;15.80;99.90;;;;;;4818595;29;20213;-83
2022/10/18 04:15:43;;;;;;;17.52;12.88;;;15.80;99.90;;;;;;4824366;29;20190;-83
2022/10/18 04:18:08;;;;;;;17.02;12.00;;;15.80;99.90;;;;;;4822752;29;20197;-83
2022/10/18 04:20:34;;;;;;;16.02;11.90;;;15.80;99.90;;;;;;4811923;29;20273;-83
2022/10/18 04:23:00;;;;;;;18.48;11.68;;;15.90;99.90;;;;;;4816409;29;20301;-83
2022/10/18 04:25:27;;;;;;;19.90;13.15;;;15.90;99.90;;;;;;4824113;29;20456;-83
2022/10/18 04:27:53;;;;;;;16.13;11.77;;;15.90;99.90;;;;;;4824475;29;20245;-83
2022/10/18 04:30:19;;;;;;;15.07;11.82;;;15.90;99.90;;;;;;4822879;29;20661;-82
2022/10/18 04:32:44;;;;;;;17.75;12.63;;;15.80;99.90;;;;;;4816033;29;20194;-83
2022/10/18 04:35:10;;;;;;;18.75;14.13;;;15.80;99.90;;;;;;4822609;29;20190;-83
2022/10/18 04:37:36;;;;;;;16.17;12.98;;;15.80;99.90;;;;;;4822859;29;20633;-83
2022/10/18 04:40:02;;;;;;;17.25;12.70;;;15.80;99.90;;;;;;4822587;29;20185;-82
2022/10/18 04:42:28;;;;;;;17.50;13.02;;;15.80;99.90;;;;;;4803453;29;20236;-83
2022/10/18 04:44:53;;;;;;;19.02;14.30;;;15.80;99.90;;;;;;4823689;29;20190;-83
2022/10/18 04:47:19;;;;;;;20.58;13.63;;;15.80;99.90;;;;;;4824392;29;20269;-82
2022/10/18 04:49:45;;;;;;;21.92;13.82;;;15.80;99.90;;;;;;4822418;29;20193;-83
2022/10/18 04:52:11;;;;;;;20.92;13.90;;;15.80;99.90;;;;;;4817153;29;20540;-83
2022/10/18 04:54:36;;;;;;;17.73;13.05;;;15.80;99.90;;;;;;4823433;29;20224;-82
2022/10/18 04:57:02;;;;;;;18.15;13.60;;;15.80;99.90;;;;;;4823754;29;20268;-83
2022/10/18 04:59:28;;;;;;;17.60;13.93;;;15.80;99.90;;;;;;4822717;29;20201;-83
2022/10/18 05:01:54;;;;;;;21.33;14.57;;;15.80;99.90;;;;;;4806013;29;20194;-82
2022/10/18 05:04:19;;;;;;;20.25;13.68;;;15.80;99.90;;;;;;4822248;29;20198;-83
2022/10/18 05:06:45;;;;;;;19.73;13.95;;;15.80;99.90;;;;;;4818730;29;20332;-83
2022/10/18 05:09:11;;;;;;;18.63;13.20;;;15.80;99.90;;;;;;4824362;29;20626;-83
2022/10/18 05:11:37;;;;;;;16.73;13.00;;;15.80;99.90;;;;;;4808503;29;20246;-83
2022/10/18 05:14:03;;;;;;;22.73;14.75;;;15.80;99.90;;;;;;4824260;29;20185;-83
2022/10/18 05:16:30;;;;;;;18.13;13.73;;;15.70;99.90;;;;;;4813142;29;20193;-82
2022/10/18 05:18:56;;;;;;;21.77;13.95;;;15.70;99.90;;;;;;4820010;29;20197;-83
2022/10/18 05:21:22;;;;;;;21.33;14.50;;;15.70;99.90;;;;;;4813661;29;20205;-82
2022/10/18 05:23:47;;;;;;;22.63;15.00;;;15.70;99.90;;;;;;4815893;29;20205;-84
2022/10/18 05:26:13;;;;;;;19.20;14.57;;;15.70;99.90;;;;;;4818260;29;20677;-83
2022/10/18 05:28:39;;;;;;;19.88;13.68;;;15.70;99.90;;;;;;4823784;29;20265;-83
2022/10/18 05:31:06;;;;;;;17.63;12.77;;;15.70;99.90;;;;;;4822414;29;20689;-83
2022/10/18 05:33:32;;;;;;;18.60;13.75;;;15.60;99.90;;;;;;4821260;29;20196;-83
2022/10/18 05:35:58;;;;;;;17.73;14.10;;;15.60;99.90;;;;;;4821824;29;20190;-83
2022/10/18 05:38:24;;;;;;;22.67;14.05;;;15.60;99.90;;;;;;4818520;29;20254;-83
2022/10/18 05:40:50;;;;;;;17.63;13.00;;;15.60;99.90;;;;;;4827364;29;20798;-82
2022/10/18 05:43:16;;;;;;;20.25;14.13;;;15.60;99.90;;;;;;4823232;29;20197;-83
2022/10/18 05:45:49;;;;;;;21.30;14.35;;;15.70;99.90;;;;;;4816385;29;20905;-84
2022/10/18 05:48:16;;;;;;;20.17;14.85;;;15.70;99.90;;;;;;4811701;29;20214;-82
2022/10/18 05:50:42;;;;;;;21.15;13.23;;;15.70;99.90;;;;;;4792744;29;20201;-83
2022/10/18 05:53:07;;;;;;;22.05;13.77;;;15.70;99.90;;;;;;4807603;29;20186;-83
2022/10/18 05:55:33;;;;;;;19.10;13.38;;;15.70;99.90;;;;;;4806038;29;20198;-83
2022/10/18 05:57:59;;;;;;;21.10;14.18;;;15.70;99.90;;;;;;4803973;29;20202;-84
2022/10/18 06:00:25;;;;;;;21.42;14.85;;;15.60;99.90;;;;;;4805550;29;20268;-83
2022/10/18 06:02:50;;;;;;;22.02;14.55;;;15.70;99.90;;;;;;4815592;29;20190;-84
2022/10/18 06:05:16;;;;;;;21.55;15.40;;;15.70;99.90;;;;;;4823993;29;20178;-84
2022/10/18 06:07:42;;;;;;;22.33;15.20;;;15.70;99.90;;;;;;4805603;29;20233;-84
2022/10/18 06:10:08;;;;;;;19.85;14.32;;;15.70;99.90;;;;;;4827045;29;20280;-84
2022/10/18 06:12:33;;;;;;;24.33;16.23;;;15.70;99.90;;;;;;4825263;29;20194;-84
2022/10/18 06:14:59;;;;;;;20.85;15.05;;;15.60;99.90;;;;;;4810622;29;20701;-84
2022/10/18 06:17:25;;;;;;;23.00;16.40;;;15.60;99.90;;;;;;4811641;29;20209;-84
2022/10/18 06:19:51;;;;;;;24.55;16.30;;;15.60;99.90;;;;;;4793341;29;20195;-84
2022/10/18 06:22:16;;;;;;;22.10;16.23;;;15.60;99.90;;;;;;4805821;29;20289;-84
2022/10/18 06:24:42;;;;;;;25.65;16.30;;;15.60;99.90;;;;;;4826699;29;20578;-84
2022/10/18 06:27:08;;;;;;;24.50;16.10;;;15.60;99.90;;;;;;4826497;29;20273;-84
2022/10/18 06:29:38;;;;;;;22.05;15.90;;;15.60;99.90;;;;;;4824648;29;20182;-84
2022/10/18 06:32:05;;;;;;;25.08;16.50;;;15.60;99.90;;;;;;4817812;29;20190;-84
2022/10/18 06:34:31;;;;;;;25.63;17.42;;;15.60;99.90;;;;;;4792272;29;20549;-84
2022/10/18 06:36:57;;;;;;;22.95;15.68;;;15.60;99.90;;;;;;4822052;29;20190;-84
2022/10/18 06:39:22;;;;;;;26.33;15.88;;;15.60;99.90;;;;;;4826542;29;20189;-85
2022/10/18 06:41:48;;;;;;;25.77;15.38;;;15.60;99.90;;;;;;4825375;29;20697;-84
2022/10/18 06:44:14;;;;;;;22.80;16.00;;;15.60;99.90;;;;;;4830717;29;20189;-84
2022/10/18 06:46:40;;;;;;;24.10;15.32;;;15.60;99.90;;;;;;4844704;29;20205;-84
2022/10/18 06:49:07;;;;;;;26.55;16.85;;;15.60;99.90;;;;;;4814952;29;20296;-85
2022/10/18 06:51:33;;;;;;;22.58;16.48;;;15.60;99.90;;;;;;4823940;29;20190;-84
2022/10/18 06:53:58;;;;;;;25.40;17.08;;;15.60;99.90;;;;;;4810188;29;20223;-85
2022/10/18 06:56:24;;;;;;;24.40;16.13;;;15.60;99.90;;;;;;4815249;29;20277;-86
2022/10/18 06:58:49;;;;;;;23.90;16.35;;;15.60;99.90;;;;;;4823802;29;20280;-88
2022/10/18 07:01:17;;;;;;;21.65;16.05;;;15.60;99.90;;;;;;4808844;29;20224;-88
2022/10/18 07:03:44;;;;;;;23.42;15.93;;;15.60;99.90;;;;;;4821158;29;20189;-87
2022/10/18 07:06:13;;;;;;;24.02;16.08;;;15.60;99.90;;;;;;4810317;29;20182;-87
2022/10/18 07:08:38;;;;;;;23.30;15.88;;;15.60;99.90;;;;;;4812047;29;20247;-87
2022/10/18 07:11:05;;;;;;;23.13;15.20;;;15.60;99.90;;;;;;4817132;29;20194;-87
2022/10/18 07:13:32;;;;;;;26.77;16.48;;;15.70;99.90;;;;;;4822199;29;20595;-87
2022/10/18 07:16:01;;;;;;;24.85;16.23;;;15.60;99.90;;;;;;4806800;29;20198;-86
2022/10/18 07:18:26;;;;;;;22.77;15.55;;;15.60;99.90;;;;;;4808253;29;20194;-87
2022/10/18 07:20:52;;;;;;;23.70;14.40;;;15.60;99.90;;;;;;4791976;29;20182;-87
2022/10/18 07:23:19;;;;;;;21.58;15.23;;;15.60;99.90;;;;;;4808379;29;20193;-88
2022/10/18 07:25:45;;;;;;;23.55;16.23;;;15.60;99.90;;;;;;4807680;29;20179;-88
2022/10/18 07:28:11;;;;;;;23.65;14.93;;;15.60;99.90;;;;;;4789075;29;20239;-87
2022/10/18 07:30:37;;;;;;;22.67;15.07;;;15.60;99.90;;;;;;4803837;29;20191;-87
2022/10/18 07:33:03;;;;;;;25.85;17.10;;;15.60;99.90;;;;;;4795671;29;20336;-87
2022/10/18 07:35:30;;;;;;;26.45;16.00;;;15.60;99.90;;;;;;4795804;29;20619;-87
2022/10/18 07:37:55;;;;;;;25.27;16.33;;;15.60;99.90;;;;;;4808270;29;20186;-90
2022/10/18 07:40:21;;;;;;;24.02;17.02;;;15.50;99.90;;;;;;4807213;29;20202;-90
2022/10/18 07:42:47;;;;;;;23.13;15.70;;;15.60;99.90;;;;;;4806950;29;20202;-92
2022/10/18 07:45:13;;;;;;;24.75;16.92;;;15.60;99.90;;;;;;4807905;29;20187;-91
2022/10/18 07:47:39;;;;;;;34.05;16.20;;;15.60;99.90;;;;;;4807042;29;20234;-90
2022/10/18 07:50:11;;;;;;;30.17;17.35;;;15.70;99.90;;;;;;4806952;29;20194;-91
2022/10/18 07:52:38;;;;;;;25.88;15.18;;;15.60;99.90;;;;;;4809612;29;20235;-90
2022/10/18 07:55:10;;;;;;;23.13;15.63;;;15.70;99.90;;;;;;4815886;29;20266;-91
2022/10/18 07:57:36;;;;;;;22.33;15.73;;;15.60;99.90;;;;;;4807142;29;20248;-91
2022/10/18 08:00:02;;;;;;;25.85;16.73;;;15.70;99.90;;;;;;4806668;29;20271;-89
2022/10/18 08:02:28;;;;;;;24.48;16.33;;;15.60;99.90;;;;;;4801244;29;20191;-91
2022/10/18 08:04:55;;;;;;;23.70;15.43;;;15.60;99.90;;;;;;4815787;29;20190;-91
2022/10/18 08:07:20;;;;;;;26.88;16.60;;;15.60;99.90;;;;;;4807422;29;20226;-90
2022/10/18 08:09:46;;;;;;;24.95;16.75;;;15.70;99.90;;;;;;4806478;29;20199;-90
2022/10/18 08:12:14;;;;;;;26.23;17.48;;;15.70;99.90;;;;;;4807562;29;20604;-92
2022/10/18 08:14:46;;;;;;;26.40;16.75;;;15.70;99.90;;;;;;4807886;29;20182;-90
2022/10/18 08:17:12;;;;;;;25.23;16.13;;;15.80;99.90;;;;;;4795725;29;20529;-89
2022/10/18 08:19:38;;;;;;;31.70;19.45;;;15.80;99.90;;;;;;4815129;29;20194;-88
2022/10/18 08:22:03;;;;;;;27.13;16.98;;;15.80;99.90;;;;;;4805372;29;20182;-90
2022/10/18 08:24:29;;;;;;;27.02;17.30;;;15.80;99.90;;;;;;4790325;29;20187;-88
2022/10/18 08:26:55;;;;;;;26.80;16.92;;;15.80;99.90;;;;;;4803950;29;20223;-89
2022/10/18 08:29:20;;;;;;;29.70;17.83;;;15.80;99.90;;;;;;4806573;29;20202;-88
2022/10/18 08:31:49;;;;;;;25.92;17.60;;;15.80;99.90;;;;;;4822629;29;20193;-88
2022/10/18 08:34:15;;;;;;;25.63;17.20;;;15.80;99.90;;;;;;4808490;29;20200;-88
2022/10/18 08:36:42;;;;;;;26.80;17.83;;;15.80;99.90;;;;;;4808923;29;20193;-89
2022/10/18 08:39:08;;;;;;;32.70;18.73;;;15.80;99.90;;;;;;4809776;29;20318;-89
2022/10/18 08:41:42;;;;;;;28.40;18.50;;;15.80;99.90;;;;;;4812336;29;20282;-88
2022/10/18 08:44:17;;;;;;;29.27;17.85;;;15.90;99.90;;;;;;4822590;29;20562;-88
2022/10/18 08:46:51;;;;;;;29.55;18.17;;;15.90;99.90;;;;;;4825042;29;20217;-87
2022/10/18 08:49:39;;;;;;;31.70;18.08;;;15.90;99.90;;;;;;4825652;29;20246;-89
2022/10/18 08:52:16;;;;;;;28.38;17.20;;;15.90;99.90;;;;;;4810710;29;20190;-88
2022/10/18 08:54:56;;;;;;;29.65;18.00;;;16.00;99.90;;;;;;4824014;29;20528;-90
2022/10/18 08:57:22;;;;;;;34.03;18.50;;;16.00;99.90;;;;;;4822040;29;20702;-88
2022/10/18 08:59:47;;;;;;;29.70;19.15;;;16.00;99.90;;;;;;4805153;29;20191;-90
2022/10/18 09:02:37;;;;;;;26.67;19.08;;;16.00;99.90;;;;;;4807955;29;20179;-89
2022/10/18 09:05:38;;;;;;;24.58;16.20;;;16.00;99.90;;;;;;4792457;29;20567;-90
2022/10/18 09:08:12;;;;;;;30.65;18.98;;;16.10;99.90;;;;;;4823154;29;20559;-90
2022/10/18 09:10:47;;;;;;;31.73;20.08;;;16.20;99.90;;;;;;4807018;29;20194;-87
2022/10/18 09:13:31;;;;;;;31.58;18.80;;;16.20;99.90;;;;;;4818596;29;20231;-85
2022/10/18 09:16:26;;;;;;;31.17;19.42;;;16.30;99.90;;;;;;4823155;29;20265;-87
2022/10/18 09:19:32;;;;;;;41.95;20.20;;;16.30;99.90;;;;;;4823764;29;20197;-87
2022/10/18 09:22:05;;;;;;;37.28;20.38;;;16.40;99.90;;;;;;4796765;29;20233;-87
2022/10/18 09:24:53;;;;;;;33.72;20.85;;;16.50;99.90;;;;;;4824317;29;20240;-86
2022/10/18 09:27:22;;;;;;;32.38;18.88;;;16.50;99.90;;;;;;4804902;29;20701;-87
2022/10/18 09:30:08;;;;;;;30.80;19.92;;;16.50;99.90;;;;;;4803719;29;20329;-87
2022/10/18 09:32:48;;;;;;;31.38;19.85;;;16.50;99.90;;;;;;4806401;29;20250;-86
2022/10/18 09:35:23;;;;;;;30.70;19.75;;;16.60;99.90;;;;;;4804853;29;20186;-86
2022/10/18 09:37:52;;;;;;;34.42;20.83;;;16.60;99.90;;;;;;4801725;29;20625;-86
2022/10/18 09:40:28;;;;;;;36.53;21.02;;;16.50;99.90;;;;;;4795902;29;20194;-87
2022/10/18 09:43:06;;;;;;;31.90;19.42;;;16.60;99.90;;;;;;4802451;29;20590;-86
2022/10/18 09:45:39;;;;;;;31.67;19.80;;;16.60;99.90;;;;;;4821209;29;20218;-87
2022/10/18 09:48:18;;;;;;;29.45;18.38;;;16.50;99.90;;;;;;4812024;29;20227;-86
2022/10/18 09:50:54;;;;;;;28.95;19.25;;;16.60;99.90;;;;;;4808614;29;20201;-86
2022/10/18 09:53:58;;;;;;;27.45;19.73;;;16.50;99.90;;;;;;4806143;29;20661;-86
2022/10/18 09:56:48;;;;;;;29.65;19.83;;;16.60;99.90;;;;;;4774598;29;20211;-86
2022/10/18 09:59:48;;;;;;;37.15;22.55;;;16.60;99.90;;;;;;4804832;29;20202;-86
2022/10/18 10:02:22;;;;;;;33.75;19.73;;;16.60;99.90;;;;;;4802392;29;20202;-87
2022/10/18 10:04:49;;;;;;;32.63;18.70;;;16.60;99.90;;;;;;4814953;29;20205;-86
2022/10/18 10:07:41;;;;;;;34.67;19.00;;;16.70;99.90;;;;;;4808398;29;20561;-85
2022/10/18 10:10:22;;;;;;;26.52;18.63;;;16.70;99.90;;;;;;4803603;29;20211;-87
2022/10/18 10:13:00;;;;;;;30.23;18.38;;;16.70;99.90;;;;;;4815854;29;20194;-87
2022/10/18 10:15:26;;;;;;;30.30;18.35;;;16.70;99.90;;;;;;4806782;29;20212;-87
2022/10/18 10:18:00;;;;;;;29.50;17.88;;;16.80;99.90;;;;;;4804888;29;20270;-87
2022/10/18 10:20:34;;;;;;;25.30;17.75;;;16.80;99.90;;;;;;4799783;29;20585;-88
2022/10/18 10:23:19;;;;;;;26.63;17.20;;;16.90;99.90;;;;;;4796784;29;20188;-88
2022/10/18 10:25:51;;;;;;;25.17;18.20;;;16.90;99.90;;;;;;4790986;29;20186;-86
2022/10/18 10:28:25;;;;;;;28.35;18.30;;;16.90;99.90;;;;;;4804226;29;20720;-87
2022/10/18 10:30:50;;;;;;;32.35;18.10;;;16.90;99.90;;;;;;4802553;29;20536;-85
2022/10/18 10:33:35;;;;;;;38.22;19.58;;;16.90;99.90;;;;;;4807481;29;20191;-87
2022/10/18 10:36:05;;;;;;;25.92;16.67;;;16.90;99.90;;;;;;4807060;29;20194;-87
2022/10/18 10:38:31;;;;;;;28.67;17.25;;;16.80;99.90;;;;;;4803902;29;20198;-86
2022/10/18 10:40:58;;;;;;;35.22;19.33;;;16.80;99.90;;;;;;4804971;29;20191;-86
2022/10/18 10:43:32;;;;;;;28.88;18.05;;;16.80;99.90;;;;;;4800035;29;20257;-87
2022/10/18 10:46:17;;;;;;;32.80;17.92;;;16.80;99.90;;;;;;4804987;29;20258;-87
2022/10/18 10:48:58;;;;;;;31.58;18.88;;;16.90;99.90;;;;;;4798293;29;20279;-87
2022/10/18 10:51:38;;;;;;;27.33;17.10;;;16.90;99.90;;;;;;4800755;29;20195;-86
2022/10/18 10:54:12;;;;;;;32.67;19.83;;;16.90;99.90;;;;;;4792616;29;20219;-86
2022/10/18 10:56:58;;;;;;;28.70;18.50;;;16.90;99.90;;;;;;4794217;29;20190;-86
2022/10/18 10:59:27;;;;;;;26.58;18.02;;;16.90;99.90;;;;;;4804854;29;20549;-88
2022/10/18 11:02:17;;;;;;;30.05;17.83;;;17.00;99.90;;;;;;4806237;29;20654;-87
2022/10/18 11:04:45;;;;;;;27.38;17.33;;;17.10;99.90;;;;;;4807002;29;20205;-87
2022/10/18 11:07:37;;;;;;;26.17;16.83;;;17.20;99.90;;;;;;4803963;29;20630;-87
2022/10/18 11:10:09;;;;;;;28.50;16.50;;;17.30;99.90;;;;;;4804579;29;20289;-87
2022/10/18 11:12:44;;;;;;;22.95;15.23;;;17.40;99.90;;;;;;4811781;29;20245;-87
2022/10/18 11:15:12;;;;;;;22.20;15.55;;;17.50;99.90;;;;;;4812307;29;20296;-89
2022/10/18 11:17:41;;;;;;;24.63;13.85;;;17.70;99.90;;;;;;4807040;29;20199;-89
2022/10/18 11:20:09;;;;;;;19.10;13.27;;;17.80;99.90;;;;;;4805956;29;20542;-88
2022/10/18 11:22:59;;;;;;;22.58;13.25;;;18.00;99.90;;;;;;4797312;29;20616;-88
2022/10/18 11:25:49;;;;;;;20.90;12.38;;;18.10;99.90;;;;;;4804511;29;20741;-87
2022/10/18 11:28:42;;;;;;;16.80;12.48;;;18.10;99.90;;;;;;4793262;29;20294;-86
2022/10/18 11:31:32;;;;;;;16.35;11.25;;;18.20;99.90;;;;;;4804098;29;20936;-86
2022/10/18 11:34:24;;;;;;;17.17;9.63;;;18.20;99.90;;;;;;4801068;29;20536;-86
2022/10/18 11:36:55;;;;;;;10.00;7.45;;;18.20;99.90;;;;;;4801936;29;20241;-86
2022/10/18 11:39:31;;;;;;;10.57;6.47;;;18.30;99.90;;;;;;4803154;29;20183;-87
2022/10/18 11:42:05;;;;;;;16.75;6.60;;;18.30;99.90;;;;;;4803725;29;20278;-86
2022/10/18 11:44:56;;;;;;;11.85;5.25;;;18.30;99.90;;;;;;4794235;29;20214;-87
2022/10/18 11:47:52;;;;;;;15.75;5.35;;;18.10;99.90;;;;;;4807418;29;20217;-85
2022/10/18 11:50:25;;;;;;;10.13;4.53;;;18.10;99.90;;;;;;4801666;29;20195;-85
2022/10/18 11:53:00;;;;;;;7.47;4.53;;;18.10;99.90;;;;;;4806082;29;20179;-85
2022/10/18 11:55:34;;;;;;;12.52;4.70;;;18.00;99.90;;;;;;4805412;29;20238;-84
2022/10/18 11:58:09;;;;;;;8.50;4.10;;;17.90;99.90;;;;;;4806824;29;20653;-85
2022/10/18 12:01:05;;;;;;;12.20;4.63;;;17.80;99.90;;;;;;4792926;29;20198;-84
2022/10/18 12:03:31;;;;;;;14.57;5.05;;;17.90;99.90;;;;;;4787987;30;20180;-85
2022/10/18 12:06:03;;;;;;;12.23;4.65;;;17.90;99.90;;;;;;4791015;29;20244;-85
2022/10/18 12:08:37;;;;;;;13.35;5.28;;;18.00;99.90;;;;;;4802264;29;20222;-84
2022/10/18 12:11:16;;;;;;;19.65;5.45;;;18.10;99.90;;;;;;4803072;29;20197;-85
2022/10/18 12:13:50;;;;;;;8.63;4.40;;;18.10;99.90;;;;;;4800914;29;20243;-85
2022/10/18 12:16:18;;;;;;;13.95;4.50;;;18.30;99.90;;;;;;4806285;29;20189;-85
2022/10/18 12:19:06;;;;;;;15.02;4.75;;;18.50;99.90;;;;;;4808731;29;20205;-85
2022/10/18 12:21:33;;;;;;;9.43;4.55;;;18.50;99.90;;;;;;4814676;29;20200;-84
2022/10/18 12:24:07;;;;;;;15.05;4.57;;;18.50;99.90;;;;;;4824872;29;20186;-85
2022/10/18 12:26:33;;;;;;;12.30;4.75;;;18.70;99.90;;;;;;4791406;29;20211;-84
2022/10/18 12:29:26;;;;;;;9.07;4.32;;;18.70;99.90;;;;;;4814724;29;20298;-84
2022/10/18 12:32:00;;;;;;;12.02;4.50;;;18.80;99.90;;;;;;4822700;29;20463;-83
2022/10/18 12:34:42;;;;;;;10.60;3.92;;;18.80;99.90;;;;;;4815028;29;20285;-84
2022/10/18 12:37:30;;;;;;;8.40;3.78;;;18.80;99.90;;;;;;4800837;29;20186;-83
2022/10/18 12:40:00;;;;;;;9.93;3.72;;;18.90;99.90;;;;;;4798990;29;20696;-84
2022/10/18 12:42:29;;;;;;;8.43;3.70;;;19.00;99.90;;;;;;4808165;29;20194;-84
2022/10/18 12:45:15;;;;;;;7.07;3.60;;;19.00;99.90;;;;;;4822322;29;20272;-85
2022/10/18 12:47:41;;;;;;;7.90;3.45;;;18.80;99.90;;;;;;4821508;29;20228;-84
2022/10/18 12:50:25;;;;;;;9.52;3.63;;;18.80;99.90;;;;;;4823976;29;20268;-84
2022/10/18 12:53:09;;;;;;;10.60;3.45;;;18.90;99.90;;;;;;4790427;29;20189;-84